Time;durP1;ratioP1;P1;durP2;ratioP2;P2;SDS_P1;SDS_P2;PMS_P1;PMS_P2;Temp;Humidity;BMP_temperature;BMP_pressure;BME280_temperature;BME280_humidity;BME280_pressure;Samples;Min_cycle;Max_cycle;Signal;HPM_P1;HPM_P2
2021/08/02 00:00:36;;;;;;;2.7;2.5;;;;;;;12.83;100;95029.22;;;;
2021/08/02 00:01:45;;;;;;;2.75;2.55;;;;;;;12.69;100;95022.69;;;;
2021/08/02 00:02:48;;;;;;;2.75;2.55;;;;;;;12.69;100;95022.69;;;;
2021/08/02 00:03:58;;;;;;;2.75;2.55;;;;;;;12.69;100;95022.69;;;;
2021/08/02 00:05:02;;;;;;;2.75;2.55;;;;;;;12.69;100;95022.69;;;;
2021/08/02 00:06:05;;;;;;;2.75;2.55;;;;;;;12.69;100;95022.69;;;;
2021/08/02 00:07:11;;;;;;;2.75;2.55;;;;;;;12.69;100;95022.69;;;;
2021/08/02 00:08:12;;;;;;;2.75;2.55;;;;;;;12.69;100;95022.69;;;;
2021/08/02 00:09:19;;;;;;;2.75;2.55;;;;;;;12.69;100;95022.69;;;;
2021/08/02 00:10:23;;;;;;;2.75;2.55;;;;;;;12.69;100;95022.69;;;;
2021/08/02 00:11:29;;;;;;;2.85;2.45;;;;;;;12.7;100;95029.61;;;;
2021/08/02 00:12:33;;;;;;;2.85;2.45;;;;;;;12.7;100;95029.61;;;;
2021/08/02 00:13:41;;;;;;;2.85;2.45;;;;;;;12.7;100;95029.61;;;;
2021/08/02 00:14:46;;;;;;;2.85;2.45;;;;;;;12.7;100;95029.61;;;;
2021/08/02 00:15:47;;;;;;;2.85;2.45;;;;;;;12.7;100;95029.61;;;;
2021/08/02 00:16:48;;;;;;;2.85;2.45;;;;;;;12.7;100;95029.61;;;;
2021/08/02 00:17:49;;;;;;;2.85;2.45;;;;;;;12.7;100;95029.61;;;;
2021/08/02 00:18:50;;;;;;;2.85;2.45;;;;;;;12.7;100;95029.61;;;;
2021/08/02 00:19:52;;;;;;;2.85;2.45;;;;;;;12.7;100;95029.61;;;;
2021/08/02 00:20:53;;;;;;;2.85;2.45;;;;;;;12.7;100;95029.61;;;;
2021/08/02 00:21:54;;;;;;;2.85;2.45;;;;;;;12.7;100;95029.61;;;;
2021/08/02 00:22:55;;;;;;;2.649999;2.45;;;;;;;12.68;100;95025.95;;;;
2021/08/02 00:23:57;;;;;;;2.649999;2.45;;;;;;;12.68;100;95025.95;;;;
2021/08/02 00:24:58;;;;;;;2.649999;2.45;;;;;;;12.68;100;95025.95;;;;
2021/08/02 00:26:02;;;;;;;2.649999;2.45;;;;;;;12.68;100;95025.95;;;;
2021/08/02 00:27:03;;;;;;;2.649999;2.45;;;;;;;12.68;100;95025.95;;;;
2021/08/02 00:28:04;;;;;;;2.649999;2.45;;;;;;;12.68;100;95025.95;;;;
2021/08/02 00:29:05;;;;;;;2.649999;2.45;;;;;;;12.68;100;95025.95;;;;
2021/08/02 00:30:06;;;;;;;2.649999;2.45;;;;;;;12.68;100;95025.95;;;;
2021/08/02 00:31:08;;;;;;;2.649999;2.45;;;;;;;12.68;100;95025.95;;;;
2021/08/02 00:32:09;;;;;;;2.649999;2.45;;;;;;;12.68;100;95025.95;;;;
2021/08/02 00:33:10;;;;;;;2.649999;2.45;;;;;;;12.68;100;95025.95;;;;
2021/08/02 00:34:11;;;;;;;2.649999;2.45;;;;;;;12.68;100;95025.95;;;;
2021/08/02 00:35:12;;;;;;;2.649999;2.45;;;;;;;12.68;100;95025.95;;;;
2021/08/02 00:36:12;;;;;;;2.649999;2.45;;;;;;;12.68;100;95025.95;;;;
2021/08/02 00:37:20;;;;;;;2.649999;2.45;;;;;;;12.68;100;95025.95;;;;
2021/08/02 00:38:31;;;;;;;2.649999;2.45;;;;;;;12.68;100;95025.95;;;;
2021/08/02 00:39:38;;;;;;;2.649999;2.45;;;;;;;12.68;100;95025.95;;;;
2021/08/02 00:40:46;;;;;;;2.649999;2.45;;;;;;;12.68;100;95025.95;;;;
2021/08/02 00:42:08;;;;;;;2.649999;2.45;;;;;;;12.68;100;95025.95;;;;
2021/08/02 00:46:18;;;;;;;3;2.299999;;;;;;;12.51;100;95027.39;;;;
2021/08/02 00:47:25;;;;;;;3;2.299999;;;;;;;12.51;100;95027.39;;;;
2021/08/02 00:48:29;;;;;;;3;2.299999;;;;;;;12.51;100;95027.39;;;;
2021/08/02 00:49:38;;;;;;;3;2.299999;;;;;;;12.51;100;95027.39;;;;
2021/08/02 00:50:43;;;;;;;3;2.299999;;;;;;;12.51;100;95027.39;;;;
2021/08/02 00:51:46;;;;;;;3;2.299999;;;;;;;12.51;100;95027.39;;;;
2021/08/02 00:52:51;;;;;;;3;2.299999;;;;;;;12.51;100;95027.39;;;;
2021/08/02 00:53:59;;;;;;;3;2.299999;;;;;;;12.51;100;95027.39;;;;
2021/08/02 00:55:01;;;;;;;3.25;2.75;;;;;;;12.52;100;95024.95;;;;
2021/08/02 00:56:04;;;;;;;3.25;2.75;;;;;;;12.52;100;95024.95;;;;
2021/08/02 00:57:05;;;;;;;3.25;2.75;;;;;;;12.52;100;95024.95;;;;
2021/08/02 00:58:10;;;;;;;3.25;2.75;;;;;;;12.52;100;95024.95;;;;
2021/08/02 00:59:14;;;;;;;3.25;2.75;;;;;;;12.52;100;95024.95;;;;
2021/08/02 01:00:14;;;;;;;3.25;2.75;;;;;;;12.52;100;95024.95;;;;
2021/08/02 01:01:18;;;;;;;3.25;2.75;;;;;;;12.52;100;95024.95;;;;
2021/08/02 01:02:19;;;;;;;3.25;2.75;;;;;;;12.52;100;95024.95;;;;
2021/08/02 01:03:20;;;;;;;3.25;2.75;;;;;;;12.52;100;95024.95;;;;
2021/08/02 01:04:21;;;;;;;3.25;2.75;;;;;;;12.52;100;95024.95;;;;
2021/08/02 01:05:22;;;;;;;3.25;2.75;;;;;;;12.52;100;95024.95;;;;
2021/08/02 01:06:23;;;;;;;3.25;2.75;;;;;;;12.52;100;95024.95;;;;
2021/08/02 01:07:28;;;;;;;3.25;2.75;;;;;;;12.52;100;95024.95;;;;
2021/08/02 01:08:31;;;;;;;3.25;2.75;;;;;;;12.52;100;95024.95;;;;
2021/08/02 01:09:35;;;;;;;3.25;2.75;;;;;;;12.52;100;95024.95;;;;
2021/08/02 01:10:39;;;;;;;3.25;2.75;;;;;;;12.52;100;95024.95;;;;
2021/08/02 01:11:45;;;;;;;3.25;2.75;;;;;;;12.52;100;95024.95;;;;
2021/08/02 01:12:48;;;;;;;3.25;2.75;;;;;;;12.52;100;95024.95;;;;
2021/08/02 01:13:51;;;;;;;3.25;2.75;;;;;;;12.52;100;95024.95;;;;
2021/08/02 01:14:52;;;;;;;3.25;2.75;;;;;;;12.52;100;95024.95;;;;
2021/08/02 01:15:54;;;;;;;2.75;2.55;;;;;;;12.37;100;95025.74;;;;
2021/08/02 01:17:00;;;;;;;2.75;2.55;;;;;;;12.37;100;95025.74;;;;
2021/08/02 01:18:01;;;;;;;2.75;2.55;;;;;;;12.37;100;95025.74;;;;
2021/08/02 01:19:08;;;;;;;2.75;2.55;;;;;;;12.37;100;95025.74;;;;
2021/08/02 01:20:11;;;;;;;2.75;2.55;;;;;;;12.37;100;95025.74;;;;
2021/08/02 01:21:13;;;;;;;2.75;2.55;;;;;;;12.37;100;95025.74;;;;
2021/08/02 01:22:17;;;;;;;2.75;2.55;;;;;;;12.37;100;95025.74;;;;
2021/08/02 01:23:25;;;;;;;2.75;2.55;;;;;;;12.37;100;95025.74;;;;
2021/08/02 01:24:26;;;;;;;2.75;2.55;;;;;;;12.37;100;95025.74;;;;
2021/08/02 01:25:27;;;;;;;2.75;2.55;;;;;;;12.37;100;95025.74;;;;
2021/08/02 01:33:55;;;;;;;2.75;2.55;;;;;;;12.37;100;95025.74;;;;
2021/08/02 01:34:56;;;;;;;2.75;2.55;;;;;;;12.37;100;95025.74;;;;
2021/08/02 01:35:57;;;;;;;2.75;2.55;;;;;;;12.37;100;95025.74;;;;
2021/08/02 01:36:59;;;;;;;3.3;3;;;;;;;12.11;100;95034.19;;;;
2021/08/02 01:38:00;;;;;;;3.3;3;;;;;;;12.11;100;95034.19;;;;
2021/08/02 01:39:00;;;;;;;3.3;3;;;;;;;12.11;100;95034.19;;;;
2021/08/02 01:40:01;;;;;;;3.3;3;;;;;;;12.11;100;95034.19;;;;
2021/08/02 01:41:03;;;;;;;3.3;3;;;;;;;12.11;100;95034.19;;;;
2021/08/02 01:42:03;;;;;;;3.3;3;;;;;;;12.11;100;95034.19;;;;
2021/08/02 01:43:06;;;;;;;3.3;3;;;;;;;12.11;100;95034.19;;;;
2021/08/02 01:44:07;;;;;;;3.3;3;;;;;;;12.11;100;95034.19;;;;
2021/08/02 01:45:08;;;;;;;3.3;3;;;;;;;12.11;100;95034.19;;;;
2021/08/02 01:46:09;;;;;;;3.3;3;;;;;;;12.11;100;95034.19;;;;
2021/08/02 01:47:18;;;;;;;3.3;3;;;;;;;12.11;100;95034.19;;;;
2021/08/02 01:48:29;;;;;;;3.3;3;;;;;;;12.11;100;95034.19;;;;
2021/08/02 01:49:39;;;;;;;3.3;3;;;;;;;12.11;100;95034.19;;;;
2021/08/02 01:50:44;;;;;;;3.3;3;;;;;;;12.11;100;95034.19;;;;
2021/08/02 01:51:52;;;;;;;3.3;3;;;;;;;12.11;100;95034.19;;;;
2021/08/02 01:52:56;;;;;;;3.3;3;;;;;;;12.11;100;95034.19;;;;
2021/08/02 01:54:05;;;;;;;3.3;3;;;;;;;12.11;100;95034.19;;;;
2021/08/02 01:55:17;;;;;;;3.3;3;;;;;;;12.11;100;95034.19;;;;
2021/08/02 01:56:21;;;;;;;3.3;3;;;;;;;12.11;100;95034.19;;;;
2021/08/02 01:57:25;;;;;;;3.3;3;;;;;;;12.11;100;95034.19;;;;
2021/08/02 01:58:34;;;;;;;3.6;3.25;;;;;;;12.21;100;95047.88;;;;
2021/08/02 01:59:41;;;;;;;3.6;3.25;;;;;;;12.21;100;95047.88;;;;
2021/08/02 02:00:47;;;;;;;3.6;3.25;;;;;;;12.21;100;95047.88;;;;
2021/08/02 02:01:49;;;;;;;3.6;3.25;;;;;;;12.21;100;95047.88;;;;
2021/08/02 02:02:53;;;;;;;3.6;3.25;;;;;;;12.21;100;95047.88;;;;
2021/08/02 02:04:00;;;;;;;3.6;3.25;;;;;;;12.21;100;95047.88;;;;
2021/08/02 02:05:04;;;;;;;3.6;3.25;;;;;;;12.21;100;95047.88;;;;
2021/08/02 02:06:07;;;;;;;3.6;3.25;;;;;;;12.21;100;95047.88;;;;
2021/08/02 02:07:12;;;;;;;3.6;3.25;;;;;;;12.21;100;95047.88;;;;
2021/08/02 02:08:14;;;;;;;3.6;3.25;;;;;;;12.21;100;95047.88;;;;
2021/08/02 02:09:18;;;;;;;3.35;3.05;;;;;;;12.4;100;95058.12;;;;
2021/08/02 02:10:19;;;;;;;3.35;3.05;;;;;;;12.4;100;95058.12;;;;
2021/08/02 02:11:22;;;;;;;3.35;3.05;;;;;;;12.4;100;95058.12;;;;
2021/08/02 02:12:25;;;;;;;3.35;3.05;;;;;;;12.4;100;95058.12;;;;
2021/08/02 02:13:25;;;;;;;3.35;3.05;;;;;;;12.4;100;95058.12;;;;
2021/08/02 02:14:29;;;;;;;3.35;3.05;;;;;;;12.4;100;95058.12;;;;
2021/08/02 02:15:34;;;;;;;3.35;3.05;;;;;;;12.4;100;95058.12;;;;
2021/08/02 02:16:35;;;;;;;3.35;3.05;;;;;;;12.4;100;95058.12;;;;
2021/08/02 02:17:40;;;;;;;3.35;3.05;;;;;;;12.4;100;95058.12;;;;
2021/08/02 02:18:43;;;;;;;3.35;3.05;;;;;;;12.4;100;95058.12;;;;
2021/08/02 02:19:47;;;;;;;3.2;2.65;;;;;;;12.61;100;95061.5;;;;
2021/08/02 02:20:51;;;;;;;3.2;2.65;;;;;;;12.61;100;95061.5;;;;
2021/08/02 02:21:53;;;;;;;3.2;2.65;;;;;;;12.61;100;95061.5;;;;
2021/08/02 02:22:55;;;;;;;3.2;2.65;;;;;;;12.61;100;95061.5;;;;
2021/08/02 02:23:56;;;;;;;3.2;2.65;;;;;;;12.61;100;95061.5;;;;
2021/08/02 02:24:58;;;;;;;3.2;2.65;;;;;;;12.61;100;95061.5;;;;
2021/08/02 02:25:59;;;;;;;3.2;2.65;;;;;;;12.61;100;95061.5;;;;
2021/08/02 02:27:01;;;;;;;3.2;2.65;;;;;;;12.61;100;95061.5;;;;
2021/08/02 02:28:02;;;;;;;3.2;2.65;;;;;;;12.61;100;95061.5;;;;
2021/08/02 02:29:04;;;;;;;3.2;2.65;;;;;;;12.61;100;95061.5;;;;
2021/08/02 02:30:08;;;;;;;3.2;2.65;;;;;;;12.61;100;95061.5;;;;
2021/08/02 02:31:10;;;;;;;3.2;2.65;;;;;;;12.61;100;95061.5;;;;
2021/08/02 02:32:11;;;;;;;3.2;2.65;;;;;;;12.61;100;95061.5;;;;
2021/08/02 02:33:13;;;;;;;3.2;2.65;;;;;;;12.61;100;95061.5;;;;
2021/08/02 02:34:15;;;;;;;3.2;2.65;;;;;;;12.61;100;95061.5;;;;
2021/08/02 02:35:18;;;;;;;3.2;2.65;;;;;;;12.61;100;95061.5;;;;
2021/08/02 02:36:19;;;;;;;3.2;2.65;;;;;;;12.61;100;95061.5;;;;
2021/08/02 02:37:24;;;;;;;3.2;2.65;;;;;;;12.61;100;95061.5;;;;
2021/08/02 02:38:25;;;;;;;3.2;2.65;;;;;;;12.61;100;95061.5;;;;
2021/08/02 02:39:27;;;;;;;3.2;2.65;;;;;;;12.61;100;95061.5;;;;
2021/08/02 02:40:28;;;;;;;3.2;2.65;;;;;;;12.61;100;95061.5;;;;
2021/08/02 02:41:29;;;;;;;3;2.65;;;;;;;12.69;100;95055.19;;;;
2021/08/02 02:42:30;;;;;;;3;2.65;;;;;;;12.69;100;95055.19;;;;
2021/08/02 02:43:32;;;;;;;3;2.65;;;;;;;12.69;100;95055.19;;;;
2021/08/02 02:44:34;;;;;;;3;2.65;;;;;;;12.69;100;95055.19;;;;
2021/08/02 02:45:36;;;;;;;3;2.65;;;;;;;12.69;100;95055.19;;;;
2021/08/02 02:46:39;;;;;;;3;2.65;;;;;;;12.69;100;95055.19;;;;
2021/08/02 02:47:40;;;;;;;3;2.65;;;;;;;12.69;100;95055.19;;;;
2021/08/02 02:48:43;;;;;;;3;2.65;;;;;;;12.69;100;95055.19;;;;
2021/08/02 02:49:44;;;;;;;3;2.65;;;;;;;12.69;100;95055.19;;;;
2021/08/02 02:50:46;;;;;;;3;2.65;;;;;;;12.69;100;95055.19;;;;
2021/08/02 02:51:50;;;;;;;4;2.95;;;;;;;12.71;100;95062.01;;;;
2021/08/02 02:52:51;;;;;;;4;2.95;;;;;;;12.71;100;95062.01;;;;
2021/08/02 02:53:52;;;;;;;4;2.95;;;;;;;12.71;100;95062.01;;;;
2021/08/02 02:54:54;;;;;;;4;2.95;;;;;;;12.71;100;95062.01;;;;
2021/08/02 02:55:56;;;;;;;4;2.95;;;;;;;12.71;100;95062.01;;;;
2021/08/02 02:56:58;;;;;;;4;2.95;;;;;;;12.71;100;95062.01;;;;
2021/08/02 02:57:59;;;;;;;4;2.95;;;;;;;12.71;100;95062.01;;;;
2021/08/02 02:59:01;;;;;;;4;2.95;;;;;;;12.71;100;95062.01;;;;
2021/08/02 03:00:02;;;;;;;4;2.95;;;;;;;12.71;100;95062.01;;;;
2021/08/02 03:01:05;;;;;;;4;2.95;;;;;;;12.71;100;95062.01;;;;
2021/08/02 03:02:06;;;;;;;4;2.95;;;;;;;12.71;100;95062.01;;;;
2021/08/02 03:03:07;;;;;;;2.8;2.6;;;;;;;12.85;100;95061.47;;;;
2021/08/02 03:04:13;;;;;;;2.8;2.6;;;;;;;12.85;100;95061.47;;;;
2021/08/02 03:05:15;;;;;;;2.8;2.6;;;;;;;12.85;100;95061.47;;;;
2021/08/02 03:06:18;;;;;;;2.8;2.6;;;;;;;12.85;100;95061.47;;;;
2021/08/02 03:07:20;;;;;;;2.8;2.6;;;;;;;12.85;100;95061.47;;;;
2021/08/02 03:08:22;;;;;;;2.8;2.6;;;;;;;12.85;100;95061.47;;;;
2021/08/02 03:09:25;;;;;;;2.8;2.6;;;;;;;12.85;100;95061.47;;;;
2021/08/02 03:10:34;;;;;;;2.8;2.6;;;;;;;12.85;100;95061.47;;;;
2021/08/02 03:11:35;;;;;;;2.8;2.6;;;;;;;12.85;100;95061.47;;;;
2021/08/02 03:12:38;;;;;;;2.8;2.6;;;;;;;12.85;100;95061.47;;;;
2021/08/02 03:13:38;;;;;;;4.25;2.9;;;;;;;12.93;100;95068.74;;;;
2021/08/02 03:14:39;;;;;;;4.25;2.9;;;;;;;12.93;100;95068.74;;;;
2021/08/02 03:15:40;;;;;;;4.25;2.9;;;;;;;12.93;100;95068.74;;;;
2021/08/02 03:16:41;;;;;;;4.25;2.9;;;;;;;12.93;100;95068.74;;;;
2021/08/02 03:17:42;;;;;;;4.25;2.9;;;;;;;12.93;100;95068.74;;;;
2021/08/02 03:18:42;;;;;;;4.25;2.9;;;;;;;12.93;100;95068.74;;;;
2021/08/02 03:19:43;;;;;;;4.25;2.9;;;;;;;12.93;100;95068.74;;;;
2021/08/02 03:20:43;;;;;;;4.25;2.9;;;;;;;12.93;100;95068.74;;;;
2021/08/02 03:21:44;;;;;;;4.25;2.9;;;;;;;12.93;100;95068.74;;;;
2021/08/02 03:22:44;;;;;;;4.25;2.9;;;;;;;12.93;100;95068.74;;;;
2021/08/02 03:23:48;;;;;;;3.25;2.85;;;;;;;12.99;100;95060.39;;;;
2021/08/02 03:25:05;;;;;;;3.25;2.85;;;;;;;12.99;100;95060.39;;;;
2021/08/02 03:26:12;;;;;;;3.25;2.85;;;;;;;12.99;100;95060.39;;;;
2021/08/02 03:27:17;;;;;;;3.25;2.85;;;;;;;12.99;100;95060.39;;;;
2021/08/02 03:28:26;;;;;;;3.25;2.85;;;;;;;12.99;100;95060.39;;;;
2021/08/02 03:29:31;;;;;;;3.25;2.85;;;;;;;12.99;100;95060.39;;;;
2021/08/02 03:30:37;;;;;;;3.25;2.85;;;;;;;12.99;100;95060.39;;;;
2021/08/02 03:31:41;;;;;;;3.25;2.85;;;;;;;12.99;100;95060.39;;;;
2021/08/02 03:32:45;;;;;;;3.25;2.85;;;;;;;12.99;100;95060.39;;;;
2021/08/02 03:33:48;;;;;;;3.25;2.85;;;;;;;12.99;100;95060.39;;;;
2021/08/02 03:34:50;;;;;;;3.35;3.15;;;;;;;12.82;100;95061.99;;;;
2021/08/02 03:35:55;;;;;;;3.35;3.15;;;;;;;12.82;100;95061.99;;;;
2021/08/02 03:37:00;;;;;;;3.35;3.15;;;;;;;12.82;100;95061.99;;;;
2021/08/02 03:38:05;;;;;;;3.35;3.15;;;;;;;12.82;100;95061.99;;;;
2021/08/02 03:39:07;;;;;;;3.35;3.15;;;;;;;12.82;100;95061.99;;;;
2021/08/02 03:40:09;;;;;;;3.35;3.15;;;;;;;12.82;100;95061.99;;;;
2021/08/02 03:41:13;;;;;;;3.35;3.15;;;;;;;12.82;100;95061.99;;;;
2021/08/02 03:42:15;;;;;;;3.35;3.15;;;;;;;12.82;100;95061.99;;;;
2021/08/02 03:43:17;;;;;;;3.35;3.15;;;;;;;12.82;100;95061.99;;;;
2021/08/02 03:44:18;;;;;;;3.35;3.15;;;;;;;12.82;100;95061.99;;;;
2021/08/02 03:45:20;;;;;;;4;3.65;;;;;;;12.67;100;95074;;;;
2021/08/02 03:46:20;;;;;;;4;3.65;;;;;;;12.67;100;95074;;;;
2021/08/02 03:47:22;;;;;;;4;3.65;;;;;;;12.67;100;95074;;;;
2021/08/02 03:48:25;;;;;;;4;3.65;;;;;;;12.67;100;95074;;;;
2021/08/02 03:49:26;;;;;;;4;3.65;;;;;;;12.67;100;95074;;;;
2021/08/02 03:50:27;;;;;;;4;3.65;;;;;;;12.67;100;95074;;;;
2021/08/02 03:51:27;;;;;;;4;3.65;;;;;;;12.67;100;95074;;;;
2021/08/02 03:52:33;;;;;;;4;3.65;;;;;;;12.67;100;95074;;;;
2021/08/02 03:53:33;;;;;;;4;3.65;;;;;;;12.67;100;95074;;;;
2021/08/02 03:54:38;;;;;;;4;3.65;;;;;;;12.67;100;95074;;;;
2021/08/02 03:55:39;;;;;;;4.25;3.85;;;;;;;12.4;100;95095.62;;;;
2021/08/02 03:56:42;;;;;;;4.25;3.85;;;;;;;12.4;100;95095.62;;;;
2021/08/02 03:57:43;;;;;;;4.25;3.85;;;;;;;12.4;100;95095.62;;;;
2021/08/02 03:58:44;;;;;;;4.25;3.85;;;;;;;12.4;100;95095.62;;;;
2021/08/02 03:59:45;;;;;;;4.25;3.85;;;;;;;12.4;100;95095.62;;;;
2021/08/02 04:00:47;;;;;;;4.25;3.85;;;;;;;12.4;100;95095.62;;;;
2021/08/02 04:01:48;;;;;;;4.25;3.85;;;;;;;12.4;100;95095.62;;;;
2021/08/02 04:02:49;;;;;;;4.25;3.85;;;;;;;12.4;100;95095.62;;;;
2021/08/02 04:03:50;;;;;;;4.25;3.85;;;;;;;12.4;100;95095.62;;;;
2021/08/02 04:04:51;;;;;;;4.25;3.85;;;;;;;12.4;100;95095.62;;;;
2021/08/02 04:05:54;;;;;;;4.25;3.85;;;;;;;12.4;100;95095.62;;;;
2021/08/02 04:06:54;;;;;;;4.85;3.75;;;;;;;12.32;100;95122.33;;;;
2021/08/02 04:07:55;;;;;;;4.85;3.75;;;;;;;12.32;100;95122.33;;;;
2021/08/02 04:08:55;;;;;;;4.85;3.75;;;;;;;12.32;100;95122.33;;;;
2021/08/02 04:09:56;;;;;;;4.85;3.75;;;;;;;12.32;100;95122.33;;;;
2021/08/02 04:10:56;;;;;;;4.85;3.75;;;;;;;12.32;100;95122.33;;;;
2021/08/02 04:11:57;;;;;;;4.85;3.75;;;;;;;12.32;100;95122.33;;;;
2021/08/02 04:12:58;;;;;;;4.85;3.75;;;;;;;12.32;100;95122.33;;;;
2021/08/02 04:13:58;;;;;;;4.85;3.75;;;;;;;12.32;100;95122.33;;;;
2021/08/02 04:14:59;;;;;;;4.85;3.75;;;;;;;12.32;100;95122.33;;;;
2021/08/02 04:15:59;;;;;;;4.85;3.75;;;;;;;12.32;100;95122.33;;;;
2021/08/02 04:17:00;;;;;;;3.65;3.25;;;;;;;12.38;100;95126.61;;;;
2021/08/02 04:18:00;;;;;;;3.65;3.25;;;;;;;12.38;100;95126.61;;;;
2021/08/02 04:19:01;;;;;;;3.65;3.25;;;;;;;12.38;100;95126.61;;;;
2021/08/02 04:20:03;;;;;;;3.65;3.25;;;;;;;12.38;100;95126.61;;;;
2021/08/02 04:21:06;;;;;;;3.65;3.25;;;;;;;12.38;100;95126.61;;;;
2021/08/02 04:22:06;;;;;;;3.65;3.25;;;;;;;12.38;100;95126.61;;;;
2021/08/02 04:23:07;;;;;;;3.65;3.25;;;;;;;12.38;100;95126.61;;;;
2021/08/02 04:24:07;;;;;;;3.65;3.25;;;;;;;12.38;100;95126.61;;;;
2021/08/02 04:25:08;;;;;;;3.65;3.25;;;;;;;12.38;100;95126.61;;;;
2021/08/02 04:26:12;;;;;;;3.65;3.25;;;;;;;12.38;100;95126.61;;;;
2021/08/02 04:27:13;;;;;;;3.65;3.25;;;;;;;12.38;100;95126.61;;;;
2021/08/02 04:28:13;;;;;;;3.65;3.25;;;;;;;12.38;100;95126.61;;;;
2021/08/02 04:29:14;;;;;;;3.65;3.25;;;;;;;12.38;100;95126.61;;;;
2021/08/02 04:30:14;;;;;;;3.65;3.25;;;;;;;12.38;100;95126.61;;;;
2021/08/02 04:31:15;;;;;;;3.65;3.25;;;;;;;12.38;100;95126.61;;;;
2021/08/02 04:32:15;;;;;;;3.65;3.25;;;;;;;12.38;100;95126.61;;;;
2021/08/02 04:33:17;;;;;;;3.65;3.25;;;;;;;12.38;100;95126.61;;;;
2021/08/02 04:34:18;;;;;;;3.65;3.25;;;;;;;12.38;100;95126.61;;;;
2021/08/02 04:35:19;;;;;;;3.65;3.25;;;;;;;12.38;100;95126.61;;;;
2021/08/02 04:36:19;;;;;;;3.65;3.25;;;;;;;12.38;100;95126.61;;;;
2021/08/02 04:37:20;;;;;;;3.65;3.25;;;;;;;12.38;100;95126.61;;;;
2021/08/02 04:38:21;;;;;;;4.5;3.85;;;;;;;12.78;100;95147.03;;;;
2021/08/02 04:39:21;;;;;;;4.5;3.85;;;;;;;12.78;100;95147.03;;;;
2021/08/02 04:40:22;;;;;;;4.5;3.85;;;;;;;12.78;100;95147.03;;;;
2021/08/02 04:41:22;;;;;;;4.5;3.85;;;;;;;12.78;100;95147.03;;;;
2021/08/02 04:42:23;;;;;;;4.5;3.85;;;;;;;12.78;100;95147.03;;;;
2021/08/02 04:43:24;;;;;;;4.5;3.85;;;;;;;12.78;100;95147.03;;;;
2021/08/02 04:44:24;;;;;;;4.5;3.85;;;;;;;12.78;100;95147.03;;;;
2021/08/02 04:45:25;;;;;;;4.5;3.85;;;;;;;12.78;100;95147.03;;;;
2021/08/02 04:46:25;;;;;;;4.5;3.85;;;;;;;12.78;100;95147.03;;;;
2021/08/02 04:47:26;;;;;;;4.5;3.85;;;;;;;12.78;100;95147.03;;;;
2021/08/02 04:48:27;;;;;;;4.5;3.85;;;;;;;12.78;100;95147.03;;;;
2021/08/02 04:49:27;;;;;;;5.450001;3.900001;;;;;;;12.97;100;95146.14;;;;
2021/08/02 04:50:28;;;;;;;5.450001;3.900001;;;;;;;12.97;100;95146.14;;;;
2021/08/02 04:51:28;;;;;;;5.450001;3.900001;;;;;;;12.97;100;95146.14;;;;
2021/08/02 04:52:29;;;;;;;5.450001;3.900001;;;;;;;12.97;100;95146.14;;;;
2021/08/02 04:53:29;;;;;;;5.450001;3.900001;;;;;;;12.97;100;95146.14;;;;
2021/08/02 04:54:30;;;;;;;5.450001;3.900001;;;;;;;12.97;100;95146.14;;;;
2021/08/02 04:55:30;;;;;;;5.450001;3.900001;;;;;;;12.97;100;95146.14;;;;
2021/08/02 04:56:31;;;;;;;5.450001;3.900001;;;;;;;12.97;100;95146.14;;;;
2021/08/02 04:57:31;;;;;;;5.450001;3.900001;;;;;;;12.97;100;95146.14;;;;
2021/08/02 04:58:32;;;;;;;5.450001;3.900001;;;;;;;12.97;100;95146.14;;;;
2021/08/02 04:59:32;;;;;;;4.5;4.1;;;;;;;12.99;100;95146.19;;;;
2021/08/02 05:00:33;;;;;;;4.5;4.1;;;;;;;12.99;100;95146.19;;;;
2021/08/02 05:01:33;;;;;;;4.5;4.1;;;;;;;12.99;100;95146.19;;;;
2021/08/02 05:02:34;;;;;;;4.5;4.1;;;;;;;12.99;100;95146.19;;;;
2021/08/02 05:03:37;;;;;;;4.5;4.1;;;;;;;12.99;100;95146.19;;;;
2021/08/02 05:04:37;;;;;;;4.5;4.1;;;;;;;12.99;100;95146.19;;;;
2021/08/02 05:05:38;;;;;;;4.5;4.1;;;;;;;12.99;100;95146.19;;;;
2021/08/02 05:06:39;;;;;;;4.5;4.1;;;;;;;12.99;100;95146.19;;;;
2021/08/02 05:07:39;;;;;;;4.5;4.1;;;;;;;12.99;100;95146.19;;;;
2021/08/02 05:08:40;;;;;;;4.5;4.1;;;;;;;12.99;100;95146.19;;;;
2021/08/02 05:09:40;;;;;;;4.5;4.1;;;;;;;12.99;100;95146.19;;;;
2021/08/02 05:10:41;;;;;;;4.5;3.9;;;;;;;13.1;100;95146.2;;;;
2021/08/02 05:11:41;;;;;;;4.5;3.9;;;;;;;13.1;100;95146.2;;;;
2021/08/02 05:12:42;;;;;;;4.5;3.9;;;;;;;13.1;100;95146.2;;;;
2021/08/02 05:13:43;;;;;;;4.5;3.9;;;;;;;13.1;100;95146.2;;;;
2021/08/02 05:14:43;;;;;;;4.5;3.9;;;;;;;13.1;100;95146.2;;;;
2021/08/02 05:15:44;;;;;;;4.5;3.9;;;;;;;13.1;100;95146.2;;;;
2021/08/02 05:16:45;;;;;;;4.5;3.9;;;;;;;13.1;100;95146.2;;;;
2021/08/02 05:17:45;;;;;;;4.5;3.9;;;;;;;13.1;100;95146.2;;;;
2021/08/02 05:18:46;;;;;;;4.5;3.9;;;;;;;13.1;100;95146.2;;;;
2021/08/02 05:19:46;;;;;;;4.5;3.9;;;;;;;13.1;100;95146.2;;;;
2021/08/02 05:20:47;;;;;;;4.5;3.9;;;;;;;13.1;100;95146.2;;;;
2021/08/02 05:21:47;;;;;;;4.199999;3.8;;;;;;;13.32;100;95134.37;;;;
2021/08/02 05:22:50;;;;;;;4.199999;3.8;;;;;;;13.32;100;95134.37;;;;
2021/08/02 05:23:50;;;;;;;4.199999;3.8;;;;;;;13.32;100;95134.37;;;;
2021/08/02 05:24:51;;;;;;;4.199999;3.8;;;;;;;13.32;100;95134.37;;;;
2021/08/02 05:25:51;;;;;;;4.199999;3.8;;;;;;;13.32;100;95134.37;;;;
2021/08/02 05:26:52;;;;;;;4.199999;3.8;;;;;;;13.32;100;95134.37;;;;
2021/08/02 05:27:53;;;;;;;4.199999;3.8;;;;;;;13.32;100;95134.37;;;;
2021/08/02 05:28:53;;;;;;;4.199999;3.8;;;;;;;13.32;100;95134.37;;;;
2021/08/02 05:29:54;;;;;;;4.199999;3.8;;;;;;;13.32;100;95134.37;;;;
2021/08/02 05:30:54;;;;;;;4.199999;3.8;;;;;;;13.32;100;95134.37;;;;
2021/08/02 05:31:54;;;;;;;3.6;3.2;;;;;;;13.64;100;95130.19;;;;
2021/08/02 05:32:55;;;;;;;3.6;3.2;;;;;;;13.64;100;95130.19;;;;
2021/08/02 05:33:56;;;;;;;3.6;3.2;;;;;;;13.64;100;95130.19;;;;
2021/08/02 05:34:56;;;;;;;3.6;3.2;;;;;;;13.64;100;95130.19;;;;
2021/08/02 05:35:57;;;;;;;3.6;3.2;;;;;;;13.64;100;95130.19;;;;
2021/08/02 05:36:57;;;;;;;3.6;3.2;;;;;;;13.64;100;95130.19;;;;
2021/08/02 05:37:58;;;;;;;3.6;3.2;;;;;;;13.64;100;95130.19;;;;
2021/08/02 05:38:58;;;;;;;3.6;3.2;;;;;;;13.64;100;95130.19;;;;
2021/08/02 05:39:59;;;;;;;3.6;3.2;;;;;;;13.64;100;95130.19;;;;
2021/08/02 05:40:59;;;;;;;3.6;3.2;;;;;;;13.64;100;95130.19;;;;
2021/08/02 05:42:00;;;;;;;3.6;3.2;;;;;;;13.64;100;95130.19;;;;
2021/08/02 05:43:01;;;;;;;4.25;3.4;;;;;;;13.84;100;95137.68;;;;
2021/08/02 05:44:01;;;;;;;4.25;3.4;;;;;;;13.84;100;95137.68;;;;
2021/08/02 05:45:02;;;;;;;4.25;3.4;;;;;;;13.84;100;95137.68;;;;
2021/08/02 05:46:04;;;;;;;4.25;3.4;;;;;;;13.84;100;95137.68;;;;
2021/08/02 05:47:05;;;;;;;4.25;3.4;;;;;;;13.84;100;95137.68;;;;
2021/08/02 05:48:06;;;;;;;4.25;3.4;;;;;;;13.84;100;95137.68;;;;
2021/08/02 05:49:07;;;;;;;4.25;3.4;;;;;;;13.84;100;95137.68;;;;
2021/08/02 05:50:07;;;;;;;4.25;3.4;;;;;;;13.84;100;95137.68;;;;
2021/08/02 05:51:09;;;;;;;4.25;3.4;;;;;;;13.84;100;95137.68;;;;
2021/08/02 05:52:09;;;;;;;4.25;3.4;;;;;;;13.84;100;95137.68;;;;
2021/08/02 05:53:10;;;;;;;3.6;3.3;;;;;;;14.13;100;95141.71;;;;
2021/08/02 05:54:10;;;;;;;3.6;3.3;;;;;;;14.13;100;95141.71;;;;
2021/08/02 05:55:12;;;;;;;3.6;3.3;;;;;;;14.13;100;95141.71;;;;
2021/08/02 05:56:13;;;;;;;3.6;3.3;;;;;;;14.13;100;95141.71;;;;
2021/08/02 05:57:14;;;;;;;3.6;3.3;;;;;;;14.13;100;95141.71;;;;
2021/08/02 05:58:18;;;;;;;3.6;3.3;;;;;;;14.13;100;95141.71;;;;
2021/08/02 05:59:19;;;;;;;3.6;3.3;;;;;;;14.13;100;95141.71;;;;
2021/08/02 06:00:19;;;;;;;3.6;3.3;;;;;;;14.13;100;95141.71;;;;
2021/08/02 06:01:20;;;;;;;3.6;3.3;;;;;;;14.13;100;95141.71;;;;
2021/08/02 06:02:20;;;;;;;3.6;3.3;;;;;;;14.13;100;95141.71;;;;
2021/08/02 06:03:21;;;;;;;3.6;3.3;;;;;;;14.13;100;95141.71;;;;
2021/08/02 06:04:22;;;;;;;3.4;3.1;;;;;;;14.52;100;95164.92;;;;
2021/08/02 06:05:22;;;;;;;3.4;3.1;;;;;;;14.52;100;95164.92;;;;
2021/08/02 06:06:23;;;;;;;3.4;3.1;;;;;;;14.52;100;95164.92;;;;
2021/08/02 06:07:23;;;;;;;3.4;3.1;;;;;;;14.52;100;95164.92;;;;
2021/08/02 06:08:24;;;;;;;3.4;3.1;;;;;;;14.52;100;95164.92;;;;
2021/08/02 06:09:24;;;;;;;3.4;3.1;;;;;;;14.52;100;95164.92;;;;
2021/08/02 06:10:25;;;;;;;3.4;3.1;;;;;;;14.52;100;95164.92;;;;
2021/08/02 06:11:25;;;;;;;3.4;3.1;;;;;;;14.52;100;95164.92;;;;
2021/08/02 06:12:26;;;;;;;3.4;3.1;;;;;;;14.52;100;95164.92;;;;
2021/08/02 06:13:26;;;;;;;3.4;3.1;;;;;;;14.52;100;95164.92;;;;
2021/08/02 06:14:27;;;;;;;3;2.6;;;;;;;14.97;100;95185;;;;
2021/08/02 06:15:27;;;;;;;3;2.6;;;;;;;14.97;100;95185;;;;
2021/08/02 06:16:28;;;;;;;3;2.6;;;;;;;14.97;100;95185;;;;
2021/08/02 06:17:28;;;;;;;3;2.6;;;;;;;14.97;100;95185;;;;
2021/08/02 06:18:29;;;;;;;3;2.6;;;;;;;14.97;100;95185;;;;
2021/08/02 06:19:30;;;;;;;3;2.6;;;;;;;14.97;100;95185;;;;
2021/08/02 06:20:30;;;;;;;3;2.6;;;;;;;14.97;100;95185;;;;
2021/08/02 06:21:31;;;;;;;3;2.6;;;;;;;14.97;100;95185;;;;
2021/08/02 06:22:31;;;;;;;3;2.6;;;;;;;14.97;100;95185;;;;
2021/08/02 06:23:32;;;;;;;3;2.6;;;;;;;14.97;100;95185;;;;
2021/08/02 06:24:32;;;;;;;3;2.6;;;;;;;14.97;100;95185;;;;
2021/08/02 06:25:33;;;;;;;2.6;2.4;;;;;;;15.43;100;95187.38;;;;
2021/08/02 06:26:33;;;;;;;2.6;2.4;;;;;;;15.43;100;95187.38;;;;
2021/08/02 06:27:34;;;;;;;2.6;2.4;;;;;;;15.43;100;95187.38;;;;
2021/08/02 06:28:35;;;;;;;2.6;2.4;;;;;;;15.43;100;95187.38;;;;
2021/08/02 06:29:35;;;;;;;2.6;2.4;;;;;;;15.43;100;95187.38;;;;
2021/08/02 06:30:36;;;;;;;2.6;2.4;;;;;;;15.43;100;95187.38;;;;
2021/08/02 06:31:36;;;;;;;2.6;2.4;;;;;;;15.43;100;95187.38;;;;
2021/08/02 06:32:37;;;;;;;2.6;2.4;;;;;;;15.43;100;95187.38;;;;
2021/08/02 06:33:37;;;;;;;2.6;2.4;;;;;;;15.43;100;95187.38;;;;
2021/08/02 06:34:38;;;;;;;2.6;2.4;;;;;;;15.43;100;95187.38;;;;